createdAt,value
2022-08-20T00:02:16.606Z,21.30
2022-08-20T00:05:24.244Z,21.30
2022-08-20T00:08:28.748Z,21.30
2022-08-20T00:11:33.667Z,21.30
2022-08-20T00:14:37.520Z,21.20
2022-08-20T00:17:40.453Z,21.20
2022-08-20T00:20:46.116Z,21.10
2022-08-20T00:23:50.893Z,21.10
2022-08-20T00:26:55.110Z,21.10
2022-08-20T00:30:02.936Z,21.10
2022-08-20T00:33:08.108Z,21.10
2022-08-20T00:36:12.377Z,21.10
2022-08-20T00:39:15.951Z,21.10
2022-08-20T00:42:20.109Z,21.20
2022-08-20T00:45:23.055Z,21.10
2022-08-20T00:48:26.785Z,21.10
2022-08-20T00:51:34.585Z,21.10
2022-08-20T00:54:42.566Z,21.00
2022-08-20T00:58:00.750Z,21.00
2022-08-20T01:01:06.374Z,21.10
2022-08-20T01:04:11.133Z,21.00
2022-08-20T01:07:14.004Z,21.00
2022-08-20T01:10:20.904Z,21.00
2022-08-20T01:13:27.423Z,21.00
2022-08-20T01:16:32.798Z,21.00
2022-08-20T01:19:40.420Z,21.00
2022-08-20T01:23:16.259Z,21.00
2022-08-20T01:26:23.928Z,21.00
2022-08-20T01:29:35.452Z,20.90
2022-08-20T01:32:38.406Z,20.90
2022-08-20T01:35:42.963Z,20.90
2022-08-20T01:38:50.248Z,20.90
2022-08-20T01:42:06.824Z,20.90
2022-08-20T01:45:10.509Z,21.00
2022-08-20T01:48:14.889Z,21.00
2022-08-20T01:51:24.921Z,21.00
2022-08-20T01:54:28.920Z,21.00
2022-08-20T01:57:33.845Z,20.90
2022-08-20T02:00:37.079Z,20.90
2022-08-20T02:03:49.436Z,20.90
2022-08-20T02:06:57.675Z,20.80
2022-08-20T02:10:02.119Z,20.80
2022-08-20T02:13:09.604Z,20.80
2022-08-20T02:16:12.552Z,20.80
2022-08-20T02:19:23.217Z,20.80
2022-08-20T02:22:36.476Z,20.70
2022-08-20T02:25:44.774Z,20.60
2022-08-20T02:28:50.721Z,20.60
2022-08-20T02:32:24.902Z,20.60
2022-08-20T02:35:21.151Z,20.60
2022-08-20T02:38:25.068Z,20.50
2022-08-20T02:41:28.058Z,20.50
2022-08-20T02:44:32.273Z,20.40
2022-08-20T02:47:35.149Z,20.40
2022-08-20T02:50:38.319Z,20.30
2022-08-20T02:53:42.548Z,20.30
2022-08-20T02:56:50.092Z,20.30
2022-08-20T02:59:54.365Z,20.20
2022-08-20T03:02:59.261Z,20.20
2022-08-20T03:06:04.398Z,20.20
2022-08-20T03:09:08.936Z,20.20
2022-08-20T03:12:12.421Z,20.20
2022-08-20T03:15:17.194Z,20.20
2022-08-20T03:18:21.571Z,20.30
2022-08-20T03:21:26.480Z,20.30
2022-08-20T03:24:29.364Z,20.20
2022-08-20T03:27:36.142Z,20.20
2022-08-20T03:30:42.414Z,20.30
2022-08-20T03:33:52.692Z,20.30
2022-08-20T03:36:56.139Z,20.30
2022-08-20T03:39:59.340Z,20.30
2022-08-20T03:43:04.482Z,20.30
2022-08-20T03:46:21.975Z,20.30
2022-08-20T03:49:36.110Z,20.30
2022-08-20T03:52:39.060Z,20.30
2022-08-20T03:55:45.357Z,20.30
2022-08-20T03:58:56.899Z,20.30
2022-08-20T04:02:07.518Z,20.30
2022-08-20T04:05:10.680Z,20.30
2022-08-20T04:08:16.186Z,20.30
2022-08-20T04:11:19.135Z,20.30
2022-08-20T04:14:21.998Z,20.30
2022-08-20T04:17:27.457Z,20.30
2022-08-20T04:20:30.429Z,20.30
2022-08-20T04:23:33.568Z,20.30
2022-08-20T04:26:37.283Z,20.30
2022-08-20T04:29:43.029Z,20.40
2022-08-20T04:32:48.849Z,20.30
2022-08-20T04:35:52.586Z,20.40
2022-08-20T04:38:55.515Z,20.40
2022-08-20T04:41:58.489Z,20.40
2022-08-20T04:45:01.299Z,20.40
2022-08-20T04:48:11.680Z,20.40
2022-08-20T04:51:17.269Z,20.50
2022-08-20T04:54:21.219Z,20.50
2022-08-20T04:57:26.065Z,20.50
2022-08-20T05:00:31.836Z,20.50
2022-08-20T05:03:37.502Z,20.50
2022-08-20T05:06:41.182Z,20.60
2022-08-20T05:09:44.477Z,20.60
2022-08-20T05:12:53.537Z,20.60
2022-08-20T05:16:01.936Z,20.70
2022-08-20T05:19:08.482Z,20.60
2022-08-20T05:22:11.471Z,20.60
2022-08-20T05:25:14.777Z,20.60
2022-08-20T05:28:20.025Z,20.60
2022-08-20T05:31:22.917Z,20.60
2022-08-20T05:34:35.359Z,20.60
2022-08-20T05:37:39.220Z,20.60
2022-08-20T05:40:43.766Z,20.60
2022-08-20T05:43:52.753Z,20.60
2022-08-20T05:46:55.673Z,20.70
2022-08-20T05:50:00.390Z,20.70
2022-08-20T05:53:03.285Z,20.80
2022-08-20T05:56:06.632Z,20.80
2022-08-20T05:59:12.336Z,20.90
2022-08-20T06:02:33.772Z,20.90
2022-08-20T06:05:38.024Z,20.90
2022-08-20T06:08:53.747Z,20.90
2022-08-20T06:11:59.205Z,20.80
2022-08-20T06:15:02.300Z,20.80
2022-08-20T06:18:10.252Z,20.80
2022-08-20T06:21:31.896Z,20.80
2022-08-20T06:24:35.132Z,20.80
2022-08-20T06:27:39.471Z,20.80
2022-08-20T06:30:42.456Z,20.80
2022-08-20T06:33:45.405Z,20.80
2022-08-20T06:36:49.858Z,20.70
2022-08-20T06:39:53.367Z,20.80
2022-08-20T06:42:58.243Z,20.80
2022-08-20T06:46:02.228Z,20.80
2022-08-20T06:49:05.941Z,20.80
2022-08-20T06:52:11.637Z,20.80
2022-08-20T06:55:16.085Z,20.90
2022-08-20T06:58:36.731Z,20.90
2022-08-20T07:01:56.474Z,21.00
2022-08-20T07:04:59.556Z,21.00
2022-08-20T07:08:04.908Z,21.00
2022-08-20T07:11:08.106Z,21.00
2022-08-20T07:14:11.930Z,21.10
2022-08-20T07:17:15.004Z,21.10
2022-08-20T07:20:18.025Z,21.00
2022-08-20T07:23:22.268Z,21.00
2022-08-20T07:26:25.342Z,21.00
2022-08-20T07:29:48.362Z,20.90
2022-08-20T07:32:50.272Z,20.90
2022-08-20T07:35:53.109Z,21.00
2022-08-20T07:38:57.800Z,21.00
2022-08-20T07:42:04.020Z,20.90
2022-08-20T07:45:08.853Z,20.90
2022-08-20T07:48:14.547Z,20.90
2022-08-20T07:51:34.374Z,20.90
2022-08-20T07:54:39.923Z,20.90
2022-08-20T07:57:46.751Z,20.90
2022-08-20T08:00:49.954Z,20.90
2022-08-20T08:03:56.021Z,21.00
2022-08-20T08:07:00.173Z,21.00
2022-08-20T08:10:08.512Z,21.00
2022-08-20T08:13:14.125Z,21.10
2022-08-20T08:16:17.647Z,21.10
2022-08-20T08:19:20.902Z,21.20
2022-08-20T08:22:23.975Z,21.20
2022-08-20T08:25:28.499Z,21.30
2022-08-20T08:28:31.858Z,21.20
2022-08-20T08:31:35.084Z,21.30
2022-08-20T08:34:39.135Z,21.30
2022-08-20T08:37:42.013Z,21.30
2022-08-20T08:40:46.283Z,21.30
2022-08-20T08:44:01.960Z,21.40
2022-08-20T08:47:19.112Z,21.40
2022-08-20T08:50:50.153Z,21.40
2022-08-20T08:53:53.487Z,21.40
2022-08-20T08:56:59.454Z,21.40
2022-08-20T09:00:08.005Z,21.50
2022-08-20T09:03:18.125Z,21.50
2022-08-20T09:06:26.074Z,21.60
2022-08-20T09:09:33.581Z,21.70
2022-08-20T09:12:37.857Z,21.60
2022-08-20T09:15:40.811Z,21.70
2022-08-20T09:18:43.925Z,21.70
2022-08-20T09:21:46.789Z,21.80
2022-08-20T09:24:51.144Z,22.00
2022-08-20T09:27:55.386Z,22.10
2022-08-20T09:30:58.577Z,22.10
2022-08-20T09:34:01.364Z,22.10
2022-08-20T09:37:04.805Z,22.10
2022-08-20T09:40:09.631Z,22.10
2022-08-20T09:43:14.294Z,22.10
2022-08-20T09:46:17.277Z,22.00
2022-08-20T09:49:20.116Z,21.90
2022-08-20T09:52:26.835Z,21.80
2022-08-20T09:55:35.109Z,21.70
2022-08-20T09:58:46.704Z,21.70
2022-08-20T10:01:49.696Z,21.90
2022-08-20T10:04:52.665Z,22.00
2022-08-20T10:07:55.726Z,22.10
2022-08-20T10:10:58.708Z,22.10
2022-08-20T10:14:12.414Z,22.10
2022-08-20T10:17:15.276Z,22.20
2022-08-20T10:20:19.048Z,22.40
2022-08-20T10:23:21.953Z,22.50
2022-08-20T10:26:24.795Z,22.50
2022-08-20T10:29:30.950Z,22.60
2022-08-20T10:32:35.012Z,22.50
2022-08-20T10:35:38.337Z,22.50
2022-08-20T10:38:41.229Z,22.70
2022-08-20T10:41:45.665Z,22.80
2022-08-20T10:44:50.071Z,22.90
2022-08-20T10:47:53.066Z,23.00
2022-08-20T10:50:56.390Z,23.10
2022-08-20T10:53:59.380Z,23.20
2022-08-20T10:57:02.950Z,23.20
2022-08-20T11:00:10.551Z,23.30
2022-08-20T11:03:13.618Z,23.40
2022-08-20T11:06:26.418Z,23.40
2022-08-20T11:09:35.558Z,23.50
2022-08-20T11:12:38.624Z,23.50
2022-08-20T11:15:44.658Z,23.60
2022-08-20T11:18:48.207Z,23.50
2022-08-20T11:21:51.126Z,23.50
2022-08-20T11:24:54.599Z,23.60
2022-08-20T11:27:58.634Z,23.50
2022-08-20T11:31:03.133Z,23.50
2022-08-20T11:34:10.718Z,23.40
2022-08-20T11:37:19.042Z,23.40
2022-08-20T11:40:22.564Z,23.50
2022-08-20T11:43:25.477Z,23.60
2022-08-20T11:46:29.732Z,23.50
2022-08-20T11:49:32.960Z,23.40
2022-08-20T11:52:35.997Z,23.30
2022-08-20T11:55:39.085Z,23.20
2022-08-20T11:58:42.044Z,23.10
2022-08-20T12:01:46.504Z,23.20
2022-08-20T12:05:06.344Z,23.20
2022-08-20T12:08:09.793Z,23.20
2022-08-20T12:11:12.730Z,23.20
2022-08-20T12:14:15.623Z,23.20
2022-08-20T12:17:24.113Z,23.20
2022-08-20T12:20:27.033Z,23.30
2022-08-20T12:23:29.963Z,23.30
2022-08-20T12:26:32.836Z,23.30
2022-08-20T12:29:37.046Z,23.30
2022-08-20T12:32:44.748Z,23.20
2022-08-20T12:35:48.222Z,23.30
2022-08-20T12:38:57.939Z,23.20
2022-08-20T12:42:02.791Z,23.20
2022-08-20T12:45:07.527Z,23.20
2022-08-20T12:48:13.660Z,23.30
2022-08-20T12:51:16.575Z,23.30
2022-08-20T12:54:19.397Z,23.30
2022-08-20T12:57:28.736Z,23.30
2022-08-20T13:00:33.662Z,23.30
2022-08-20T13:03:44.855Z,23.10
2022-08-20T13:06:48.460Z,23.20
2022-08-20T13:09:51.283Z,23.00
2022-08-20T13:12:54.908Z,22.90
2022-08-20T13:15:58.048Z,22.80
2022-08-20T13:19:02.212Z,22.80
2022-08-20T13:22:06.085Z,22.80
2022-08-20T13:25:11.422Z,22.80
2022-08-20T13:28:14.318Z,22.70
2022-08-20T13:31:17.185Z,22.70
2022-08-20T13:34:29.944Z,22.50
2022-08-20T13:37:32.848Z,22.40
2022-08-20T13:40:35.707Z,22.40
2022-08-20T13:43:38.811Z,22.30
2022-08-20T13:46:41.727Z,22.10
2022-08-20T13:49:46.703Z,22.00
2022-08-20T13:52:49.703Z,22.00
2022-08-20T13:55:52.783Z,21.90
2022-08-20T13:58:55.640Z,21.90
2022-08-20T14:01:58.542Z,21.80
2022-08-20T14:05:02.732Z,21.70
2022-08-20T14:08:08.732Z,21.70
2022-08-20T14:11:13.867Z,21.70
2022-08-20T14:14:28.746Z,21.70
2022-08-20T14:17:40.324Z,21.70
2022-08-20T14:20:52.478Z,21.70
2022-08-20T14:23:55.413Z,21.70
2022-08-20T14:26:58.331Z,21.70
2022-08-20T14:30:01.691Z,21.60
2022-08-20T14:33:14.133Z,21.70
2022-08-20T14:36:18.432Z,21.70
2022-08-20T14:39:21.419Z,21.70
2022-08-20T14:42:26.458Z,21.80
2022-08-20T14:45:29.357Z,21.80
2022-08-20T14:48:32.293Z,21.80
2022-08-20T14:51:37.501Z,21.90
2022-08-20T14:54:41.312Z,21.90
2022-08-20T14:57:45.330Z,22.00
2022-08-20T15:00:49.026Z,21.90
2022-08-20T15:03:51.850Z,21.90
2022-08-20T15:06:57.616Z,21.80
2022-08-20T15:10:11.183Z,21.80
2022-08-20T15:13:14.091Z,21.70
2022-08-20T15:16:17.073Z,21.70
2022-08-20T15:19:20.006Z,21.70
2022-08-20T15:22:25.329Z,21.70
2022-08-20T15:25:36.964Z,21.60
2022-08-20T15:28:40.342Z,21.60
2022-08-20T15:31:43.783Z,21.60
2022-08-20T15:34:50.690Z,21.60
2022-08-20T15:37:57.243Z,21.50
2022-08-20T15:41:01.347Z,21.50
2022-08-20T15:44:04.798Z,21.50
2022-08-20T15:47:23.318Z,21.50
2022-08-20T15:50:52.499Z,21.50
2022-08-20T15:54:00.956Z,21.40
2022-08-20T15:57:08.511Z,21.40
2022-08-20T16:00:19.644Z,21.50
2022-08-20T16:03:51.885Z,21.50
2022-08-20T16:07:01.688Z,21.40
2022-08-20T16:10:15.779Z,21.40
2022-08-20T16:13:28.004Z,21.50
2022-08-20T16:16:34.072Z,21.40
2022-08-20T16:19:48.128Z,21.40
2022-08-20T16:22:53.370Z,21.40
2022-08-20T16:26:12.656Z,21.40
2022-08-20T16:29:21.064Z,21.40
2022-08-20T16:32:34.454Z,21.40
2022-08-20T16:35:46.722Z,21.40
2022-08-20T16:38:55.547Z,21.30
2022-08-20T16:41:59.829Z,21.30
2022-08-20T16:45:21.640Z,21.30
2022-08-20T16:48:31.819Z,21.30
2022-08-20T16:51:39.281Z,21.30
2022-08-20T16:54:45.383Z,21.20
2022-08-20T16:57:52.723Z,21.20
2022-08-20T17:01:09.946Z,21.20
2022-08-20T17:04:21.727Z,21.20
2022-08-20T17:07:46.123Z,21.20
2022-08-20T17:10:59.859Z,21.30
2022-08-20T17:14:28.392Z,21.30
2022-08-20T17:17:35.568Z,21.20
2022-08-20T17:20:45.122Z,21.30
2022-08-20T17:23:56.279Z,21.20
2022-08-20T17:27:03.458Z,21.20
2022-08-20T17:30:19.999Z,21.20
2022-08-20T17:33:28.219Z,21.20
2022-08-20T17:36:31.606Z,21.20
2022-08-20T17:39:34.752Z,21.30
2022-08-20T17:42:49.006Z,21.20
2022-08-20T17:45:54.063Z,21.20
2022-08-20T17:49:00.740Z,21.20
2022-08-20T17:52:08.456Z,21.20
2022-08-20T17:55:13.052Z,21.20
2022-08-20T17:58:21.370Z,21.30
2022-08-20T18:01:26.120Z,21.30
2022-08-20T18:04:32.181Z,21.30
2022-08-20T18:07:45.827Z,21.20
2022-08-20T18:11:02.695Z,21.20
2022-08-20T18:14:25.118Z,21.20
2022-08-20T18:18:09.290Z,21.10
2022-08-20T18:21:33.409Z,21.00
2022-08-20T18:24:45.414Z,21.00
2022-08-20T18:27:51.626Z,20.90
2022-08-20T18:30:57.233Z,20.90
2022-08-20T18:34:12.605Z,20.80
2022-08-20T18:37:25.144Z,20.80
2022-08-20T18:40:33.073Z,20.80
2022-08-20T18:43:36.578Z,20.70
2022-08-20T18:46:51.907Z,20.60
2022-08-20T18:50:17.281Z,20.60
2022-08-20T18:53:33.842Z,20.60
2022-08-20T18:56:41.540Z,20.60
2022-08-20T18:59:48.388Z,20.60
2022-08-20T19:02:59.367Z,20.50
2022-08-20T19:06:39.299Z,20.50
2022-08-20T19:10:12.950Z,20.50
2022-08-20T19:14:08.088Z,20.40
2022-08-20T19:17:16.342Z,20.40
2022-08-20T19:20:22.185Z,20.40
2022-08-20T19:23:29.236Z,20.40
2022-08-20T19:26:40.607Z,20.40
2022-08-20T19:29:47.640Z,20.40
2022-08-20T19:32:53.119Z,20.30
2022-08-20T19:36:11.247Z,20.40
2022-08-20T19:39:17.494Z,20.30
2022-08-20T19:42:24.802Z,20.40
2022-08-20T19:45:31.568Z,20.40
2022-08-20T19:48:44.677Z,20.40
2022-08-20T19:51:56.529Z,20.40
2022-08-20T19:55:03.859Z,20.40
2022-08-20T19:58:22.436Z,20.50
2022-08-20T20:01:29.823Z,20.50
2022-08-20T20:04:41.244Z,20.50
2022-08-20T20:07:59.769Z,20.50
2022-08-20T20:11:04.449Z,20.50
2022-08-20T20:14:11.487Z,20.50
2022-08-20T20:17:22.937Z,20.50
2022-08-20T20:20:29.427Z,20.50
2022-08-20T20:23:46.105Z,20.50
2022-08-20T20:26:51.579Z,20.50
2022-08-20T20:30:01.138Z,20.50
2022-08-20T20:33:13.642Z,20.50
2022-08-20T20:36:32.892Z,20.50
2022-08-20T20:39:39.949Z,20.50
2022-08-20T20:42:44.296Z,20.50
2022-08-20T20:45:59.300Z,20.50
2022-08-20T20:49:16.412Z,20.50
2022-08-20T20:52:22.221Z,20.60
2022-08-20T20:55:28.084Z,20.60
2022-08-20T20:58:33.695Z,20.60
2022-08-20T21:01:48.151Z,20.60
2022-08-20T21:04:58.188Z,20.60
2022-08-20T21:08:04.932Z,20.60
2022-08-20T21:11:07.809Z,20.60
2022-08-20T21:14:12.164Z,20.60
2022-08-20T21:17:20.863Z,20.60
2022-08-20T21:20:23.914Z,20.60
2022-08-20T21:23:40.081Z,20.60
2022-08-20T21:26:46.124Z,20.60
2022-08-20T21:29:50.459Z,20.60
2022-08-20T21:32:54.335Z,20.60
2022-08-20T21:35:57.604Z,20.60
2022-08-20T21:39:00.533Z,20.60
2022-08-20T21:42:16.067Z,20.60
2022-08-20T21:45:30.996Z,20.60
2022-08-20T21:48:35.016Z,20.60
2022-08-20T21:51:40.831Z,20.60
2022-08-20T21:54:49.973Z,20.50
2022-08-20T21:57:54.221Z,20.60
2022-08-20T22:01:02.776Z,20.60
2022-08-20T22:04:06.754Z,20.50
2022-08-20T22:07:10.460Z,20.60
2022-08-20T22:10:14.627Z,20.60
2022-08-20T22:13:17.519Z,20.60
2022-08-20T22:16:23.794Z,20.60
2022-08-20T22:19:27.801Z,20.60
2022-08-20T22:22:30.720Z,20.50
2022-08-20T22:25:34.348Z,20.50
2022-08-20T22:28:51.254Z,20.50
2022-08-20T22:31:55.882Z,20.50
2022-08-20T22:34:59.179Z,20.50
2022-08-20T22:38:03.897Z,20.60
2022-08-20T22:41:09.724Z,20.50
2022-08-20T22:44:16.055Z,20.50
2022-08-20T22:47:25.281Z,20.50
2022-08-20T22:50:29.893Z,20.50
2022-08-20T22:53:33.015Z,20.50
2022-08-20T22:56:36.058Z,20.60
2022-08-20T22:59:46.443Z,20.50
2022-08-20T23:03:02.194Z,20.50
2022-08-20T23:06:05.176Z,20.50
2022-08-20T23:09:08.056Z,20.50
2022-08-20T23:12:15.839Z,20.50
2022-08-20T23:15:19.117Z,20.50
2022-08-20T23:18:23.483Z,20.50
2022-08-20T23:21:26.399Z,20.50
2022-08-20T23:24:30.744Z,20.50
2022-08-20T23:27:41.902Z,20.50
2022-08-20T23:30:51.908Z,20.50
2022-08-20T23:33:56.124Z,20.50
2022-08-20T23:37:01.566Z,20.50
2022-08-20T23:40:05.900Z,20.50
2022-08-20T23:43:09.196Z,20.40
2022-08-20T23:46:12.928Z,20.40
2022-08-20T23:49:17.633Z,20.40
2022-08-20T23:52:20.571Z,20.40
2022-08-20T23:55:24.469Z,20.30
2022-08-20T23:58:27.327Z,20.40
